sensor_id;sensor_type;location;lat;lon;timestamp;pressure;altitude;pressure_sealevel;temperature;humidity
20115;BME280;10218;42.874;25.320;2023-02-20T00:01:05;97297.75;;;13.22;60.78
20115;BME280;10218;42.874;25.320;2023-02-20T00:03:33;97307.81;;;13.05;62.44
20115;BME280;10218;42.874;25.320;2023-02-20T00:06:00;97308.72;;;12.83;64.76
20115;BME280;10218;42.874;25.320;2023-02-20T00:08:27;97310.75;;;12.96;63.89
20115;BME280;10218;42.874;25.320;2023-02-20T00:10:54;97325.94;;;13.03;63.73
20115;BME280;10218;42.874;25.320;2023-02-20T00:13:21;97321.38;;;12.89;65.26
20115;BME280;10218;42.874;25.320;2023-02-20T00:15:48;97311.37;;;12.83;64.93
20115;BME280;10218;42.874;25.320;2023-02-20T00:18:16;97323.50;;;12.79;65.68
20115;BME280;10218;42.874;25.320;2023-02-20T00:20:44;97316.38;;;12.86;65.70
20115;BME280;10218;42.874;25.320;2023-02-20T00:23:12;97326.34;;;12.77;65.81
20115;BME280;10218;42.874;25.320;2023-02-20T00:25:44;97324.94;;;12.67;66.54
20115;BME280;10218;42.874;25.320;2023-02-20T00:28:11;97318.34;;;12.55;67.35
20115;BME280;10218;42.874;25.320;2023-02-20T00:30:40;97300.91;;;12.59;67.14
20115;BME280;10218;42.874;25.320;2023-02-20T00:33:12;97314.84;;;12.54;67.30
20115;BME280;10218;42.874;25.320;2023-02-20T00:35:39;97307.81;;;12.53;67.86
20115;BME280;10218;42.874;25.320;2023-02-20T00:38:06;97312.38;;;12.44;68.08
20115;BME280;10218;42.874;25.320;2023-02-20T00:40:34;97309.94;;;12.58;67.11
20115;BME280;10218;42.874;25.320;2023-02-20T00:43:02;97308.16;;;12.50;68.19
20115;BME280;10218;42.874;25.320;2023-02-20T00:45:33;97304.19;;;12.46;68.10
20115;BME280;10218;42.874;25.320;2023-02-20T00:48:02;97301.56;;;12.38;69.89
20115;BME280;10218;42.874;25.320;2023-02-20T00:50:31;97304.34;;;12.44;69.18
20115;BME280;10218;42.874;25.320;2023-02-20T00:53:00;97301.00;;;12.28;71.49
20115;BME280;10218;42.874;25.320;2023-02-20T00:55:29;97308.09;;;12.58;67.62
20115;BME280;10218;42.874;25.320;2023-02-20T00:57:56;97298.34;;;12.42;69.36
20115;BME280;10218;42.874;25.320;2023-02-20T01:00:27;97299.94;;;12.52;67.87
20115;BME280;10218;42.874;25.320;2023-02-20T01:02:55;97304.94;;;12.55;68.08
20115;BME280;10218;42.874;25.320;2023-02-20T01:05:23;97312.34;;;12.53;68.37
20115;BME280;10218;42.874;25.320;2023-02-20T01:07:51;97295.09;;;12.32;68.96
20115;BME280;10218;42.874;25.320;2023-02-20T01:10:20;97304.94;;;12.55;69.05
20115;BME280;10218;42.874;25.320;2023-02-20T01:12:47;97301.91;;;12.58;67.87
20115;BME280;10218;42.874;25.320;2023-02-20T01:15:16;97298.78;;;12.31;69.78
20115;BME280;10218;42.874;25.320;2023-02-20T01:17:45;97302.78;;;12.50;69.17
20115;BME280;10218;42.874;25.320;2023-02-20T01:20:13;97312.84;;;12.33;69.76
20115;BME280;10218;42.874;25.320;2023-02-20T01:22:42;97313.88;;;12.24;71.50
20115;BME280;10218;42.874;25.320;2023-02-20T01:25:10;97313.75;;;12.40;69.47
20115;BME280;10218;42.874;25.320;2023-02-20T01:27:37;97306.50;;;12.49;68.85
20115;BME280;10218;42.874;25.320;2023-02-20T01:30:06;97294.53;;;12.14;70.83
20115;BME280;10218;42.874;25.320;2023-02-20T01:32:35;97288.13;;;12.23;72.24
20115;BME280;10218;42.874;25.320;2023-02-20T01:35:04;97287.34;;;12.15;71.38
20115;BME280;10218;42.874;25.320;2023-02-20T01:37:32;97301.88;;;12.20;70.52
20115;BME280;10218;42.874;25.320;2023-02-20T01:40:00;97293.66;;;12.22;71.17
20115;BME280;10218;42.874;25.320;2023-02-20T01:42:31;97294.09;;;12.33;69.98
20115;BME280;10218;42.874;25.320;2023-02-20T01:45:27;97303.47;;;12.29;71.02
20115;BME280;10218;42.874;25.320;2023-02-20T01:47:57;97296.41;;;12.14;73.04
20115;BME280;10218;42.874;25.320;2023-02-20T01:50:31;97304.84;;;12.25;72.66
20115;BME280;10218;42.874;25.320;2023-02-20T01:53:13;97302.56;;;12.14;72.44
20115;BME280;10218;42.874;25.320;2023-02-20T01:55:53;97296.28;;;12.07;74.60
20115;BME280;10218;42.874;25.320;2023-02-20T01:58:32;97303.25;;;12.16;73.65
20115;BME280;10218;42.874;25.320;2023-02-20T02:01:04;97308.59;;;12.39;71.12
20115;BME280;10218;42.874;25.320;2023-02-20T02:03:34;97293.91;;;12.12;72.82
20115;BME280;10218;42.874;25.320;2023-02-20T02:06:05;97298.66;;;12.02;75.04
20115;BME280;10218;42.874;25.320;2023-02-20T02:08:35;97299.59;;;11.86;76.51
20115;BME280;10218;42.874;25.320;2023-02-20T02:11:09;97290.56;;;11.87;75.35
20115;BME280;10218;42.874;25.320;2023-02-20T02:13:41;97299.97;;;12.06;73.56
20115;BME280;10218;42.874;25.320;2023-02-20T02:36:37;97274.72;;;11.70;75.67
20115;BME280;10218;42.874;25.320;2023-02-20T02:39:17;97273.41;;;11.74;76.19
20115;BME280;10218;42.874;25.320;2023-02-20T02:41:55;97272.75;;;11.64;76.51
20115;BME280;10218;42.874;25.320;2023-02-20T02:44:33;97295.22;;;11.54;78.51
20115;BME280;10218;42.874;25.320;2023-02-20T02:47:15;97293.25;;;11.87;75.90
20115;BME280;10218;42.874;25.320;2023-02-20T02:49:52;97300.59;;;11.85;76.11
20115;BME280;10218;42.874;25.320;2023-02-20T02:52:23;97302.13;;;11.80;77.25
20115;BME280;10218;42.874;25.320;2023-02-20T02:55:11;97304.09;;;11.55;79.23
20115;BME280;10218;42.874;25.320;2023-02-20T02:57:39;97304.16;;;11.39;80.24
20115;BME280;10218;42.874;25.320;2023-02-20T03:00:30;97304.22;;;11.62;78.15
20115;BME280;10218;42.874;25.320;2023-02-20T03:03:27;97305.91;;;11.54;76.78
20115;BME280;10218;42.874;25.320;2023-02-20T03:06:26;97310.22;;;11.64;75.62
20115;BME280;10218;42.874;25.320;2023-02-20T03:09:10;97319.97;;;11.56;77.35
20115;BME280;10218;42.874;25.320;2023-02-20T03:11:42;97310.81;;;11.51;75.87
20115;BME280;10218;42.874;25.320;2023-02-20T03:14:17;97310.66;;;11.44;77.13
20115;BME280;10218;42.874;25.320;2023-02-20T03:17:39;97324.22;;;11.35;75.99
20115;BME280;10218;42.874;25.320;2023-02-20T03:20:08;97307.59;;;11.55;74.45
20115;BME280;10218;42.874;25.320;2023-02-20T03:23:03;97313.91;;;11.32;75.47
20115;BME280;10218;42.874;25.320;2023-02-20T03:25:39;97317.72;;;11.29;75.82
20115;BME280;10218;42.874;25.320;2023-02-20T03:28:41;97325.59;;;11.31;74.04
20115;BME280;10218;42.874;25.320;2023-02-20T03:31:23;97327.84;;;11.11;76.87
20115;BME280;10218;42.874;25.320;2023-02-20T03:34:00;97330.34;;;11.04;76.21
20115;BME280;10218;42.874;25.320;2023-02-20T03:36:53;97331.16;;;11.13;75.52
20115;BME280;10218;42.874;25.320;2023-02-20T03:39:49;97327.31;;;11.15;75.22
20115;BME280;10218;42.874;25.320;2023-02-20T03:42:41;97339.88;;;11.07;76.40
20115;BME280;10218;42.874;25.320;2023-02-20T03:45:30;97326.22;;;10.86;79.21
20115;BME280;10218;42.874;25.320;2023-02-20T03:48:02;97317.84;;;10.89;79.76
20115;BME280;10218;42.874;25.320;2023-02-20T03:50:34;97310.16;;;11.02;78.80
20115;BME280;10218;42.874;25.320;2023-02-20T03:53:22;97329.78;;;11.25;78.27
20115;BME280;10218;42.874;25.320;2023-02-20T03:55:51;97347.25;;;10.97;81.19
20115;BME280;10218;42.874;25.320;2023-02-20T03:58:23;97347.56;;;10.94;82.11
20115;BME280;10218;42.874;25.320;2023-02-20T04:00:55;97352.78;;;10.79;83.07
20115;BME280;10218;42.874;25.320;2023-02-20T04:03:28;97353.28;;;10.75;83.67
20115;BME280;10218;42.874;25.320;2023-02-20T04:05:59;97353.78;;;10.86;83.77
20115;BME280;10218;42.874;25.320;2023-02-20T04:08:38;97342.78;;;10.65;84.60
20115;BME280;10218;42.874;25.320;2023-02-20T04:11:17;97351.25;;;10.93;80.97
20115;BME280;10218;42.874;25.320;2023-02-20T04:13:48;97346.09;;;10.75;82.19
20115;BME280;10218;42.874;25.320;2023-02-20T04:16:18;97344.09;;;10.77;82.76
20115;BME280;10218;42.874;25.320;2023-02-20T04:18:46;97357.63;;;10.59;83.71
20115;BME280;10218;42.874;25.320;2023-02-20T04:21:32;97362.47;;;10.72;82.44
20115;BME280;10218;42.874;25.320;2023-02-20T04:24:06;97351.97;;;10.46;85.25
20115;BME280;10218;42.874;25.320;2023-02-20T04:26:35;97360.62;;;10.64;85.22
20115;BME280;10218;42.874;25.320;2023-02-20T04:29:04;97353.78;;;10.38;85.56
20115;BME280;10218;42.874;25.320;2023-02-20T04:31:32;97354.28;;;10.57;83.20
20115;BME280;10218;42.874;25.320;2023-02-20T04:33:59;97358.97;;;10.80;80.89
20115;BME280;10218;42.874;25.320;2023-02-20T04:36:27;97355.66;;;10.61;82.81
20115;BME280;10218;42.874;25.320;2023-02-20T04:38:55;97343.97;;;10.46;81.68
20115;BME280;10218;42.874;25.320;2023-02-20T04:41:23;97345.94;;;10.52;79.23
20115;BME280;10218;42.874;25.320;2023-02-20T04:43:53;97347.78;;;10.60;78.02
20115;BME280;10218;42.874;25.320;2023-02-20T04:46:41;97339.63;;;10.61;77.44
20115;BME280;10218;42.874;25.320;2023-02-20T04:49:10;97366.47;;;10.52;80.14
20115;BME280;10218;42.874;25.320;2023-02-20T04:51:38;97364.16;;;10.41;79.88
20115;BME280;10218;42.874;25.320;2023-02-20T04:54:05;97378.84;;;10.53;79.10
20115;BME280;10218;42.874;25.320;2023-02-20T04:56:33;97383.34;;;10.44;79.89
20115;BME280;10218;42.874;25.320;2023-02-20T04:59:00;97407.88;;;10.40;77.31
20115;BME280;10218;42.874;25.320;2023-02-20T05:01:27;97406.72;;;10.50;76.88
20115;BME280;10218;42.874;25.320;2023-02-20T05:03:54;97408.41;;;10.51;75.15
20115;BME280;10218;42.874;25.320;2023-02-20T05:06:22;97398.38;;;10.45;74.35
20115;BME280;10218;42.874;25.320;2023-02-20T05:08:52;97401.19;;;10.44;74.95
20115;BME280;10218;42.874;25.320;2023-02-20T05:11:21;97408.22;;;10.45;75.80
20115;BME280;10218;42.874;25.320;2023-02-20T05:13:49;97424.94;;;10.55;74.37
20115;BME280;10218;42.874;25.320;2023-02-20T05:16:17;97437.09;;;10.49;75.43
20115;BME280;10218;42.874;25.320;2023-02-20T05:18:44;97446.09;;;10.48;75.57
20115;BME280;10218;42.874;25.320;2023-02-20T05:21:13;97447.09;;;10.39;77.36
20115;BME280;10218;42.874;25.320;2023-02-20T05:23:59;97436.03;;;10.18;77.54
20115;BME280;10218;42.874;25.320;2023-02-20T05:26:27;97444.12;;;10.50;75.03
20115;BME280;10218;42.874;25.320;2023-02-20T05:28:55;97445.94;;;10.42;75.77
20115;BME280;10218;42.874;25.320;2023-02-20T05:31:23;97455.75;;;10.25;76.69
20115;BME280;10218;42.874;25.320;2023-02-20T05:33:51;97460.97;;;10.43;77.20
20115;BME280;10218;42.874;25.320;2023-02-20T05:36:19;97452.25;;;10.24;77.96
20115;BME280;10218;42.874;25.320;2023-02-20T05:38:47;97464.66;;;10.08;78.94
20115;BME280;10218;42.874;25.320;2023-02-20T05:41:16;97483.84;;;10.11;77.17
20115;BME280;10218;42.874;25.320;2023-02-20T05:43:45;97475.25;;;10.17;75.94
20115;BME280;10218;42.874;25.320;2023-02-20T05:46:15;97490.19;;;10.52;74.06
20115;BME280;10218;42.874;25.320;2023-02-20T05:48:47;97504.81;;;10.32;72.95
20115;BME280;10218;42.874;25.320;2023-02-20T05:51:23;97518.91;;;10.50;72.10
20115;BME280;10218;42.874;25.320;2023-02-20T05:53:52;97538.19;;;10.28;73.83
20115;BME280;10218;42.874;25.320;2023-02-20T05:56:19;97533.44;;;10.14;75.07
20115;BME280;10218;42.874;25.320;2023-02-20T05:58:47;97550.56;;;10.29;74.65
20115;BME280;10218;42.874;25.320;2023-02-20T06:01:19;97555.19;;;10.19;77.00
20115;BME280;10218;42.874;25.320;2023-02-20T06:03:48;97562.56;;;9.99;79.89
20115;BME280;10218;42.874;25.320;2023-02-20T06:06:16;97569.37;;;10.19;78.73
20115;BME280;10218;42.874;25.320;2023-02-20T06:08:46;97570.59;;;10.07;80.17
20115;BME280;10218;42.874;25.320;2023-02-20T06:11:15;97569.75;;;10.07;79.82
20115;BME280;10218;42.874;25.320;2023-02-20T06:13:43;97585.28;;;10.29;79.28
20115;BME280;10218;42.874;25.320;2023-02-20T06:16:11;97593.78;;;10.33;78.13
20115;BME280;10218;42.874;25.320;2023-02-20T06:18:41;97597.94;;;10.27;79.57
20115;BME280;10218;42.874;25.320;2023-02-20T06:21:11;97603.44;;;10.59;76.73
20115;BME280;10218;42.874;25.320;2023-02-20T06:23:42;97598.97;;;10.08;77.61
20115;BME280;10218;42.874;25.320;2023-02-20T06:26:13;97598.84;;;10.36;76.54
20115;BME280;10218;42.874;25.320;2023-02-20T06:28:45;97613.31;;;10.07;75.09
20115;BME280;10218;42.874;25.320;2023-02-20T06:31:24;97598.88;;;10.52;71.57
20115;BME280;10218;42.874;25.320;2023-02-20T06:33:52;97593.84;;;10.15;70.56
20115;BME280;10218;42.874;25.320;2023-02-20T06:36:28;97602.56;;;10.17;70.32
20115;BME280;10218;42.874;25.320;2023-02-20T06:38:57;97606.94;;;10.26;70.26
20115;BME280;10218;42.874;25.320;2023-02-20T06:41:25;97610.13;;;10.63;68.08
20115;BME280;10218;42.874;25.320;2023-02-20T06:43:54;97623.69;;;10.78;66.25
20115;BME280;10218;42.874;25.320;2023-02-20T06:46:21;97626.41;;;10.44;66.85
20115;BME280;10218;42.874;25.320;2023-02-20T06:48:51;97619.88;;;10.89;65.66
20115;BME280;10218;42.874;25.320;2023-02-20T06:51:22;97620.66;;;11.31;63.15
20115;BME280;10218;42.874;25.320;2023-02-20T06:53:50;97607.94;;;11.33;61.92
20115;BME280;10218;42.874;25.320;2023-02-20T06:56:22;97607.44;;;11.70;59.08
20115;BME280;10218;42.874;25.320;2023-02-20T06:58:52;97598.94;;;11.75;59.29
20115;BME280;10218;42.874;25.320;2023-02-20T07:01:25;97607.06;;;12.22;55.62
20115;BME280;10218;42.874;25.320;2023-02-20T07:03:55;97618.78;;;12.21;56.08
20115;BME280;10218;42.874;25.320;2023-02-20T07:06:24;97615.94;;;12.22;52.35
20115;BME280;10218;42.874;25.320;2023-02-20T07:08:52;97625.97;;;11.15;52.17
20115;BME280;10218;42.874;25.320;2023-02-20T07:11:22;97628.31;;;11.18;51.11
20115;BME280;10218;42.874;25.320;2023-02-20T07:13:50;97624.19;;;11.56;49.82
20115;BME280;10218;42.874;25.320;2023-02-20T07:16:19;97638.37;;;11.32;49.44
20115;BME280;10218;42.874;25.320;2023-02-20T07:18:46;97648.94;;;11.74;49.38
20115;BME280;10218;42.874;25.320;2023-02-20T07:21:13;97651.41;;;12.24;47.87
20115;BME280;10218;42.874;25.320;2023-02-20T07:23:44;97676.91;;;11.88;47.19
20115;BME280;10218;42.874;25.320;2023-02-20T07:26:21;97660.63;;;11.49;47.78
20115;BME280;10218;42.874;25.320;2023-02-20T07:28:49;97663.84;;;12.01;46.96
20115;BME280;10218;42.874;25.320;2023-02-20T07:31:17;97665.44;;;12.42;46.81
20115;BME280;10218;42.874;25.320;2023-02-20T07:33:44;97663.22;;;12.62;45.48
20115;BME280;10218;42.874;25.320;2023-02-20T07:36:13;97667.09;;;12.99;44.95
20115;BME280;10218;42.874;25.320;2023-02-20T07:38:42;97675.50;;;12.24;44.87
20115;BME280;10218;42.874;25.320;2023-02-20T07:41:10;97680.84;;;12.49;44.41
20115;BME280;10218;42.874;25.320;2023-02-20T07:43:38;97681.41;;;13.53;42.78
20115;BME280;10218;42.874;25.320;2023-02-20T07:46:07;97690.28;;;11.96;44.10
20115;BME280;10218;42.874;25.320;2023-02-20T07:48:35;97685.97;;;12.66;43.63
20115;BME280;10218;42.874;25.320;2023-02-20T07:51:03;97671.53;;;12.04;43.81
20115;BME280;10218;42.874;25.320;2023-02-20T07:53:33;97672.94;;;13.02;42.95
20115;BME280;10218;42.874;25.320;2023-02-20T07:56:01;97671.09;;;12.56;43.69
20115;BME280;10218;42.874;25.320;2023-02-20T07:58:28;97677.06;;;12.11;43.71
20115;BME280;10218;42.874;25.320;2023-02-20T08:00:55;97681.72;;;12.33;42.62
20115;BME280;10218;42.874;25.320;2023-02-20T08:03:23;97698.31;;;12.04;41.83
20115;BME280;10218;42.874;25.320;2023-02-20T08:05:50;97687.38;;;12.46;41.98
20115;BME280;10218;42.874;25.320;2023-02-20T08:08:17;97683.22;;;11.63;41.96
20115;BME280;10218;42.874;25.320;2023-02-20T08:10:44;97707.44;;;11.45;42.49
20115;BME280;10218;42.874;25.320;2023-02-20T08:13:12;97698.56;;;12.50;41.96
20115;BME280;10218;42.874;25.320;2023-02-20T08:15:39;97684.81;;;12.61;42.31
20115;BME280;10218;42.874;25.320;2023-02-20T08:18:08;97726.25;;;12.34;41.10
20115;BME280;10218;42.874;25.320;2023-02-20T08:20:47;97716.56;;;12.09;41.16
20115;BME280;10218;42.874;25.320;2023-02-20T08:23:20;97699.66;;;13.26;40.26
20115;BME280;10218;42.874;25.320;2023-02-20T08:25:48;97697.38;;;12.60;40.58
20115;BME280;10218;42.874;25.320;2023-02-20T08:28:19;97691.53;;;13.43;39.69
20115;BME280;10218;42.874;25.320;2023-02-20T08:30:46;97685.22;;;13.36;38.81
20115;BME280;10218;42.874;25.320;2023-02-20T08:33:14;97685.56;;;13.78;38.72
20115;BME280;10218;42.874;25.320;2023-02-20T08:35:42;97690.34;;;13.45;39.09
20115;BME280;10218;42.874;25.320;2023-02-20T08:40:57;97684.37;;;14.03;39.89
20115;BME280;10218;42.874;25.320;2023-02-20T08:43:24;97674.34;;;13.52;40.62
20115;BME280;10218;42.874;25.320;2023-02-20T08:45:53;97665.47;;;14.49;38.88
20115;BME280;10218;42.874;25.320;2023-02-20T08:48:21;97672.81;;;14.40;37.89
20115;BME280;10218;42.874;25.320;2023-02-20T08:50:48;97667.63;;;14.16;37.81
20115;BME280;10218;42.874;25.320;2023-02-20T08:53:15;97674.00;;;13.55;37.84
20115;BME280;10218;42.874;25.320;2023-02-20T08:55:43;97660.66;;;15.03;36.03
20115;BME280;10218;42.874;25.320;2023-02-20T08:58:11;97656.59;;;14.92;36.39
20115;BME280;10218;42.874;25.320;2023-02-20T09:00:38;97662.44;;;14.81;36.39
20115;BME280;10218;42.874;25.320;2023-02-20T09:03:05;97647.16;;;14.67;36.41
20115;BME280;10218;42.874;25.320;2023-02-20T09:05:35;97649.28;;;14.57;36.24
20115;BME280;10218;42.874;25.320;2023-02-20T09:08:05;97626.94;;;14.42;37.06
20115;BME280;10218;42.874;25.320;2023-02-20T09:10:32;97650.78;;;15.10;36.84
20115;BME280;10218;42.874;25.320;2023-02-20T09:12:59;97652.47;;;14.38;36.58
20115;BME280;10218;42.874;25.320;2023-02-20T09:15:28;97659.72;;;14.96;35.69
20115;BME280;10218;42.874;25.320;2023-02-20T09:17:58;97662.78;;;14.78;35.43
20115;BME280;10218;42.874;25.320;2023-02-20T09:20:25;97658.22;;;15.08;35.20
20115;BME280;10218;42.874;25.320;2023-02-20T09:22:56;97661.66;;;15.53;34.09
20115;BME280;10218;42.874;25.320;2023-02-20T09:25:24;97628.53;;;16.57;32.61
20115;BME280;10218;42.874;25.320;2023-02-20T09:27:51;97637.59;;;17.25;31.56
20115;BME280;10218;42.874;25.320;2023-02-20T09:30:19;97642.66;;;16.03;32.76
20115;BME280;10218;42.874;25.320;2023-02-20T09:32:47;97636.94;;;17.83;31.29
20115;BME280;10218;42.874;25.320;2023-02-20T09:35:20;97653.66;;;15.80;32.73
20115;BME280;10218;42.874;25.320;2023-02-20T09:37:48;97651.09;;;15.72;33.51
20115;BME280;10218;42.874;25.320;2023-02-20T09:40:16;97650.22;;;16.14;32.77
20115;BME280;10218;42.874;25.320;2023-02-20T09:45:22;97683.41;;;15.72;33.21
20115;BME280;10218;42.874;25.320;2023-02-20T09:50:52;97685.47;;;15.20;33.71
20115;BME280;10218;42.874;25.320;2023-02-20T09:53:49;97678.19;;;17.44;31.29
20115;BME280;10218;42.874;25.320;2023-02-20T09:56:28;97687.00;;;15.58;32.95
20115;BME280;10218;42.874;25.320;2023-02-20T10:01:33;97678.13;;;17.92;29.71
20115;BME280;10218;42.874;25.320;2023-02-20T10:04:14;97674.38;;;17.32;30.59
20115;BME280;10218;42.874;25.320;2023-02-20T10:06:44;97686.91;;;16.99;30.60
20115;BME280;10218;42.874;25.320;2023-02-20T10:09:14;97683.97;;;18.15;29.69
20115;BME280;10218;42.874;25.320;2023-02-20T10:20:48;97690.19;;;16.88;31.88
20115;BME280;10218;42.874;25.320;2023-02-20T10:23:41;97687.34;;;17.02;30.86
20115;BME280;10218;42.874;25.320;2023-02-20T10:26:25;97683.13;;;17.34;30.66
20115;BME280;10218;42.874;25.320;2023-02-20T10:28:55;97677.81;;;15.95;32.55
20115;BME280;10218;42.874;25.320;2023-02-20T10:31:36;97681.53;;;16.99;32.74
20115;BME280;10218;42.874;25.320;2023-02-20T10:34:10;97708.41;;;17.68;30.58
20115;BME280;10218;42.874;25.320;2023-02-20T10:36:45;97677.31;;;16.90;31.40
20115;BME280;10218;42.874;25.320;2023-02-20T10:39:17;97678.47;;;19.07;30.36
20115;BME280;10218;42.874;25.320;2023-02-20T10:42:14;97688.41;;;19.27;29.16
20115;BME280;10218;42.874;25.320;2023-02-20T10:44:56;97678.34;;;17.90;31.03
20115;BME280;10218;42.874;25.320;2023-02-20T10:47:35;97687.53;;;18.49;29.74
20115;BME280;10218;42.874;25.320;2023-02-20T10:50:14;97675.59;;;16.76;32.13
20115;BME280;10218;42.874;25.320;2023-02-20T10:52:57;97678.63;;;17.54;31.08
20115;BME280;10218;42.874;25.320;2023-02-20T10:58:09;97659.84;;;18.66;30.88
20115;BME280;10218;42.874;25.320;2023-02-20T11:00:49;97667.91;;;17.81;31.12
20115;BME280;10218;42.874;25.320;2023-02-20T11:03:54;97664.38;;;17.67;31.85
20115;BME280;10218;42.874;25.320;2023-02-20T11:06:30;97645.91;;;18.10;31.82
20115;BME280;10218;42.874;25.320;2023-02-20T11:08:58;97642.34;;;18.62;30.32
20115;BME280;10218;42.874;25.320;2023-02-20T11:11:32;97670.63;;;16.79;30.52
20115;BME280;10218;42.874;25.320;2023-02-20T11:14:10;97654.75;;;16.63;30.70
20115;BME280;10218;42.874;25.320;2023-02-20T11:16:43;97653.78;;;17.79;30.05
20115;BME280;10218;42.874;25.320;2023-02-20T11:19:33;97655.22;;;18.80;29.40
20115;BME280;10218;42.874;25.320;2023-02-20T11:22:04;97656.03;;;18.80;28.49
20115;BME280;10218;42.874;25.320;2023-02-20T11:24:37;97665.09;;;17.41;29.49
20115;BME280;10218;42.874;25.320;2023-02-20T11:27:22;97672.38;;;16.59;31.55
20115;BME280;10218;42.874;25.320;2023-02-20T11:33:00;97674.75;;;17.70;28.60
20115;BME280;10218;42.874;25.320;2023-02-20T11:35:33;97668.25;;;17.04;29.30
20115;BME280;10218;42.874;25.320;2023-02-20T11:43:22;97681.47;;;18.07;27.95
20115;BME280;10218;42.874;25.320;2023-02-20T11:46:16;97666.31;;;18.59;28.04
20115;BME280;10218;42.874;25.320;2023-02-20T11:51:42;97675.69;;;17.36;29.12
20115;BME280;10218;42.874;25.320;2023-02-20T11:54:19;97668.75;;;17.88;29.36
20115;BME280;10218;42.874;25.320;2023-02-20T11:57:01;97669.22;;;18.57;28.37
20115;BME280;10218;42.874;25.320;2023-02-20T11:59:33;97667.75;;;19.32;27.30
20115;BME280;10218;42.874;25.320;2023-02-20T12:02:21;97663.97;;;19.46;27.93
20115;BME280;10218;42.874;25.320;2023-02-20T12:05:07;97661.72;;;20.99;26.72
20115;BME280;10218;42.874;25.320;2023-02-20T12:07:41;97657.84;;;19.57;27.18
20115;BME280;10218;42.874;25.320;2023-02-20T12:10:26;97651.97;;;19.67;26.84
20115;BME280;10218;42.874;25.320;2023-02-20T12:12:54;97661.97;;;19.98;27.42
20115;BME280;10218;42.874;25.320;2023-02-20T12:15:25;97641.13;;;18.25;28.45
20115;BME280;10218;42.874;25.320;2023-02-20T12:20:45;97643.00;;;18.18;28.90
20115;BME280;10218;42.874;25.320;2023-02-20T12:26:57;97645.16;;;17.49;28.66
20115;BME280;10218;42.874;25.320;2023-02-20T12:29:42;97650.69;;;15.75;31.37
20115;BME280;10218;42.874;25.320;2023-02-20T12:37:38;97634.81;;;21.15;26.27
20115;BME280;10218;42.874;25.320;2023-02-20T12:43:37;97642.44;;;19.58;26.86
20115;BME280;10218;42.874;25.320;2023-02-20T12:51:37;97647.72;;;18.89;27.86
20115;BME280;10218;42.874;25.320;2023-02-20T12:54:34;97650.16;;;19.03;27.80
20115;BME280;10218;42.874;25.320;2023-02-20T12:59:57;97623.41;;;18.29;28.48
20115;BME280;10218;42.874;25.320;2023-02-20T13:02:45;97644.09;;;19.59;26.75
20115;BME280;10218;42.874;25.320;2023-02-20T13:05:18;97638.34;;;19.36;27.58
20115;BME280;10218;42.874;25.320;2023-02-20T13:07:51;97639.84;;;17.88;29.35
20115;BME280;10218;42.874;25.320;2023-02-20T13:10:23;97637.06;;;18.94;28.04
20115;BME280;10218;42.874;25.320;2023-02-20T13:12:51;97631.44;;;19.84;27.31
20115;BME280;10218;42.874;25.320;2023-02-20T13:15:37;97634.03;;;19.66;27.25
20115;BME280;10218;42.874;25.320;2023-02-20T13:18:25;97652.38;;;20.27;26.97
20115;BME280;10218;42.874;25.320;2023-02-20T13:20:57;97652.87;;;19.54;28.51
20115;BME280;10218;42.874;25.320;2023-02-20T13:23:30;97644.03;;;18.30;28.71
20115;BME280;10218;42.874;25.320;2023-02-20T13:26:00;97642.12;;;18.51;29.25
20115;BME280;10218;42.874;25.320;2023-02-20T13:28:54;97637.25;;;17.47;29.63
20115;BME280;10218;42.874;25.320;2023-02-20T13:41:56;97646.94;;;18.62;28.15
20115;BME280;10218;42.874;25.320;2023-02-20T13:46:59;97655.16;;;20.20;27.08
20115;BME280;10218;42.874;25.320;2023-02-20T13:54:59;97656.31;;;17.33;28.96
20115;BME280;10218;42.874;25.320;2023-02-20T13:57:31;97662.34;;;18.28;29.25
20115;BME280;10218;42.874;25.320;2023-02-20T14:00:00;97663.91;;;19.08;28.17
20115;BME280;10218;42.874;25.320;2023-02-20T14:02:32;97654.25;;;19.70;27.53
20115;BME280;10218;42.874;25.320;2023-02-20T14:05:16;97640.63;;;18.81;27.85
20115;BME280;10218;42.874;25.320;2023-02-20T14:07:45;97649.75;;;20.45;26.68
20115;BME280;10218;42.874;25.320;2023-02-20T14:10:28;97673.53;;;17.79;29.46
20115;BME280;10218;42.874;25.320;2023-02-20T14:16:02;97653.72;;;19.04;28.30
20115;BME280;10218;42.874;25.320;2023-02-20T14:18:32;97653.44;;;20.01;27.03
20115;BME280;10218;42.874;25.320;2023-02-20T14:21:20;97659.47;;;20.53;27.12
20115;BME280;10218;42.874;25.320;2023-02-20T14:23:50;97664.19;;;19.45;27.47
20115;BME280;10218;42.874;25.320;2023-02-20T14:28:53;97659.09;;;20.92;26.07
20115;BME280;10218;42.874;25.320;2023-02-20T14:31:23;97662.97;;;18.17;28.14
20115;BME280;10218;42.874;25.320;2023-02-20T14:36:38;97657.06;;;18.99;27.10
20115;BME280;10218;42.874;25.320;2023-02-20T14:41:52;97658.88;;;19.94;25.84
20115;BME280;10218;42.874;25.320;2023-02-20T14:44:21;97659.81;;;19.31;26.57
20115;BME280;10218;42.874;25.320;2023-02-20T14:46:52;97661.97;;;17.44;28.17
20115;BME280;10218;42.874;25.320;2023-02-20T14:49:26;97661.09;;;20.35;26.05
20115;BME280;10218;42.874;25.320;2023-02-20T14:52:18;97664.00;;;18.56;27.04
20115;BME280;10218;42.874;25.320;2023-02-20T14:55:00;97660.06;;;17.92;28.02
20115;BME280;10218;42.874;25.320;2023-02-20T14:57:29;97665.72;;;16.34;29.36
20115;BME280;10218;42.874;25.320;2023-02-20T15:02:49;97680.09;;;15.92;29.83
20115;BME280;10218;42.874;25.320;2023-02-20T15:05:29;97670.75;;;16.71;28.52
20115;BME280;10218;42.874;25.320;2023-02-20T15:08:05;97672.59;;;16.98;28.56
20115;BME280;10218;42.874;25.320;2023-02-20T15:10:40;97678.16;;;18.31;27.38